Airfield :
LOGIN :

Register | Disclaimer

   EN    FR    IT 

 










Legend :    VFR   Marginal VFR   IFR   Intensive IFR   Very Intensive IFR
Visi :
Ceiling :
>= 8 km
>= 3000ft
5 to 8 km
1000 to 3000 ft
1500m to 5 km
500 to 1000 ft
800 to 1500m
200 to 500 ft
< 800m
< 200 ft
Symbols :   Thunderstorms  Fog  Heavy snow  Heavy precipitations  Wind > 20 kt
SIGMETs :     Misc.  Thunderstorms  Icing  Turbulence  Mountain Waves  Volcanic Ashes







- Airport Elevation : 63 ft
- IATA code : BZM


EHWO - Woensdrecht Airbase

CURRENT METAR :
  • 220955Z AUTO /////KT //// // ////// ///// Q//// RE// 19010G20KT 2000 SN BKN012 TEMPO 1000 SN BKN006 BKN012

EXPIRED METARs :
  • 220925Z AUTO /////KT //// // ////// ///// Q//// RE// 19010G20KT 7000 BKN015 TEMPO 2500 SN BKN008 BKN015
  • 220900Z AUTO /////KT //// // ////// ///// Q//// 19010G20KT 7000 BKN015 TEMPO 2500 SN BKN008 BKN015
  • 220855Z AUTO 19011G24KT 150V230 6000 HZ FEW007 BKN014 BKN017 M01/M04 Q1005 GRN 19010G20KT 7000 BKN015 TEMPO 2500 SN BKN008 BKN015
  • 220835Z AUTO 20012G23KT 140V240 9000 HZ BKN013 BKN015 OVC032 M01/M04 Q1005 GRN 19010G20KT 8000 BKN015 TEMPO 2500 SN BKN008 BKN015
  • 220825Z AUTO 19012KT 150V250 9000 HZ BKN013 BKN016 BKN049 M01/M04 Q1005 GRN 19010G20KT CAVOK BECMG 2500 SN BKN008 BKN015
  • 220811Z AUTO 19012KT 160V230 9999 BKN013 BKN016 BKN048 M01/M04 Q1006 GRN 19010G20KT CAVOK BECMG 2500 SN BKN008 BKN015
  • 220755Z AUTO 19010KT 160V230 9999 FEW015 SCT047 BKN064 M01/M04 Q1006 BLU 19010G20KT CAVOK BECMG 2500 SN BKN008 BKN015
  • 220725Z AUTO 19010KT 140V230 9999 FEW059 SCT065 BKN081 M01/M04 Q1006 BLU 19010G20KT CAVOK BECMG 2500 SN BKN008 BKN015
  • 220655Z AUTO 19009KT 150V240 9999 FEW068 SCT087 OVC093 M01/M04 Q1006 BLU 19010KT CAVOK

TAF TAF EHWO
Valid from the 22 at 10:00 until the 22 at 22:00 UTC


220918Z 2210/2222 18013KT 1200 -SN FEW004 BKN006
PROB40
TEMPO 2210/2215 0500 SN VV002
BECMG 2214/2216 20008KT 3000 BR BKN004
PROB30
TEMPO 2214/2222 0900 FZFG OVC002
No reported NOTAMs for that airfield.



MET'MAP, your aeronautical weather chart ! - Copyright ORBIFLY December 2007 - Disclaimer

ORBIFLY MET'MAP TEAM :

Programming & Development : Alexandra Zaïnal
Concept & Development : Baudouin d'Aumeries
Co-Development & Prog : Marc-Olivier Méhu
Technical & hardware support : Manuel Goepfert

Contact : metmap@orbifly.com




SOURCES & CREDITS :

   NOAA